sensor_id;sensor_type;location;lat;lon;timestamp;temperature;humidity
64951;DHT22;51482;47.014;7.652;2023-04-03T00:01:09;6.90;99.90
64951;DHT22;51482;47.014;7.652;2023-04-03T00:03:34;7.30;99.90
64951;DHT22;51482;47.014;7.652;2023-04-03T00:06:01;7.50;99.90
64951;DHT22;51482;47.014;7.652;2023-04-03T00:08:26;7.20;99.90
64951;DHT22;51482;47.014;7.652;2023-04-03T00:10:52;7.10;99.90
64951;DHT22;51482;47.014;7.652;2023-04-03T00:13:18;7.30;99.90
64951;DHT22;51482;47.014;7.652;2023-04-03T00:15:43;7.10;99.90
64951;DHT22;51482;47.014;7.652;2023-04-03T00:18:09;7.50;99.90
64951;DHT22;51482;47.014;7.652;2023-04-03T00:20:35;7.30;99.90
64951;DHT22;51482;47.014;7.652;2023-04-03T00:23:01;7.00;99.90
64951;DHT22;51482;47.014;7.652;2023-04-03T00:25:27;7.60;99.90
64951;DHT22;51482;47.014;7.652;2023-04-03T00:27:54;7.30;99.90
64951;DHT22;51482;47.014;7.652;2023-04-03T00:30:22;7.00;99.90
64951;DHT22;51482;47.014;7.652;2023-04-03T00:32:49;7.40;99.90
64951;DHT22;51482;47.014;7.652;2023-04-03T00:35:15;7.10;99.90
64951;DHT22;51482;47.014;7.652;2023-04-03T00:37:42;6.40;99.90
64951;DHT22;51482;47.014;7.652;2023-04-03T00:40:08;7.60;99.90
64951;DHT22;51482;47.014;7.652;2023-04-03T00:42:36;7.00;99.90
64951;DHT22;51482;47.014;7.652;2023-04-03T00:47:28;7.70;99.90
64951;DHT22;51482;47.014;7.652;2023-04-03T00:49:54;7.10;99.90
64951;DHT22;51482;47.014;7.652;2023-04-03T00:52:25;6.70;99.90
64951;DHT22;51482;47.014;7.652;2023-04-03T00:54:54;7.50;99.90
64951;DHT22;51482;47.014;7.652;2023-04-03T00:57:22;7.60;99.90
64951;DHT22;51482;47.014;7.652;2023-04-03T00:59:51;7.30;99.90
64951;DHT22;51482;47.014;7.652;2023-04-03T01:02:19;7.30;99.90
64951;DHT22;51482;47.014;7.652;2023-04-03T01:04:45;7.60;99.90
64951;DHT22;51482;47.014;7.652;2023-04-03T01:07:18;7.70;99.90
64951;DHT22;51482;47.014;7.652;2023-04-03T01:09:45;7.60;99.90
64951;DHT22;51482;47.014;7.652;2023-04-03T01:12:16;7.70;99.90
64951;DHT22;51482;47.014;7.652;2023-04-03T01:14:48;7.60;99.90
64951;DHT22;51482;47.014;7.652;2023-04-03T01:17:36;7.50;99.90
64951;DHT22;51482;47.014;7.652;2023-04-03T01:22:50;7.10;99.90
64951;DHT22;51482;47.014;7.652;2023-04-03T01:25:17;7.60;99.90
64951;DHT22;51482;47.014;7.652;2023-04-03T01:27:43;7.10;99.90
64951;DHT22;51482;47.014;7.652;2023-04-03T01:30:09;7.20;99.90
64951;DHT22;51482;47.014;7.652;2023-04-03T01:32:34;7.30;99.90
64951;DHT22;51482;47.014;7.652;2023-04-03T01:35:00;7.50;99.90
64951;DHT22;51482;47.014;7.652;2023-04-03T01:37:25;7.60;99.90
64951;DHT22;51482;47.014;7.652;2023-04-03T01:39:51;7.20;99.90
64951;DHT22;51482;47.014;7.652;2023-04-03T01:42:16;7.30;99.90
64951;DHT22;51482;47.014;7.652;2023-04-03T01:44:42;7.00;99.90
64951;DHT22;51482;47.014;7.652;2023-04-03T01:47:08;7.10;99.90
64951;DHT22;51482;47.014;7.652;2023-04-03T01:49:33;7.10;99.90
64951;DHT22;51482;47.014;7.652;2023-04-03T01:51:59;7.60;99.90
64951;DHT22;51482;47.014;7.652;2023-04-03T01:54:25;7.70;99.90
64951;DHT22;51482;47.014;7.652;2023-04-03T01:56:50;7.00;99.90
64951;DHT22;51482;47.014;7.652;2023-04-03T01:59:16;7.60;99.90
64951;DHT22;51482;47.014;7.652;2023-04-03T02:01:43;7.30;99.90
64951;DHT22;51482;47.014;7.652;2023-04-03T02:04:11;7.80;99.90
64951;DHT22;51482;47.014;7.652;2023-04-03T02:06:36;7.20;99.90
64951;DHT22;51482;47.014;7.652;2023-04-03T02:09:03;6.80;99.90
64951;DHT22;51482;47.014;7.652;2023-04-03T02:11:28;7.80;99.90
64951;DHT22;51482;47.014;7.652;2023-04-03T02:13:54;7.10;99.90
64951;DHT22;51482;47.014;7.652;2023-04-03T02:16:19;7.70;99.90
64951;DHT22;51482;47.014;7.652;2023-04-03T02:18:45;7.80;99.90
64951;DHT22;51482;47.014;7.652;2023-04-03T02:21:10;7.80;99.90
64951;DHT22;51482;47.014;7.652;2023-04-03T02:23:36;7.30;99.90
64951;DHT22;51482;47.014;7.652;2023-04-03T02:26:07;7.30;99.90
64951;DHT22;51482;47.014;7.652;2023-04-03T02:28:34;7.50;99.90
64951;DHT22;51482;47.014;7.652;2023-04-03T02:30:59;7.10;99.90
64951;DHT22;51482;47.014;7.652;2023-04-03T02:33:25;7.10;99.90
64951;DHT22;51482;47.014;7.652;2023-04-03T02:35:55;7.60;99.90
64951;DHT22;51482;47.014;7.652;2023-04-03T02:38:21;7.60;99.90
64951;DHT22;51482;47.014;7.652;2023-04-03T02:40:47;7.30;99.90
64951;DHT22;51482;47.014;7.652;2023-04-03T02:43:12;7.00;99.90
64951;DHT22;51482;47.014;7.652;2023-04-03T02:45:38;7.60;99.90
64951;DHT22;51482;47.014;7.652;2023-04-03T02:48:04;7.60;99.90
64951;DHT22;51482;47.014;7.652;2023-04-03T02:50:29;7.00;99.90
64951;DHT22;51482;47.014;7.652;2023-04-03T02:52:55;6.90;99.90
64951;DHT22;51482;47.014;7.652;2023-04-03T02:55:20;7.40;99.90
64951;DHT22;51482;47.014;7.652;2023-04-03T02:57:46;6.70;99.90
64951;DHT22;51482;47.014;7.652;2023-04-03T03:00:12;7.40;99.90
64951;DHT22;51482;47.014;7.652;2023-04-03T03:02:38;6.80;99.90
64951;DHT22;51482;47.014;7.652;2023-04-03T03:05:03;7.40;99.90
64951;DHT22;51482;47.014;7.652;2023-04-03T03:07:29;6.90;99.90
64951;DHT22;51482;47.014;7.652;2023-04-03T03:09:55;7.20;99.90
64951;DHT22;51482;47.014;7.652;2023-04-03T03:12:20;6.70;99.90
64951;DHT22;51482;47.014;7.652;2023-04-03T03:14:50;6.70;99.90
64951;DHT22;51482;47.014;7.652;2023-04-03T03:17:16;6.30;99.90
64951;DHT22;51482;47.014;7.652;2023-04-03T03:19:42;7.00;99.90
64951;DHT22;51482;47.014;7.652;2023-04-03T03:22:07;6.30;99.90
64951;DHT22;51482;47.014;7.652;2023-04-03T03:24:33;7.00;99.90
64951;DHT22;51482;47.014;7.652;2023-04-03T03:26:58;7.00;99.90
64951;DHT22;51482;47.014;7.652;2023-04-03T03:29:24;6.20;99.90
64951;DHT22;51482;47.014;7.652;2023-04-03T03:31:50;7.10;99.90
64951;DHT22;51482;47.014;7.652;2023-04-03T03:34:15;6.40;99.90
64951;DHT22;51482;47.014;7.652;2023-04-03T03:36:41;6.70;99.90
64951;DHT22;51482;47.014;7.652;2023-04-03T03:39:07;6.70;99.90
64951;DHT22;51482;47.014;7.652;2023-04-03T03:41:32;5.70;99.90
64951;DHT22;51482;47.014;7.652;2023-04-03T03:43:58;6.50;99.90
64951;DHT22;51482;47.014;7.652;2023-04-03T03:46:23;6.00;99.90
64951;DHT22;51482;47.014;7.652;2023-04-03T03:48:49;6.30;99.90
64951;DHT22;51482;47.014;7.652;2023-04-03T03:51:15;6.40;99.90
64951;DHT22;51482;47.014;7.652;2023-04-03T03:53:40;6.40;99.90
64951;DHT22;51482;47.014;7.652;2023-04-03T03:56:06;6.50;99.90
64951;DHT22;51482;47.014;7.652;2023-04-03T03:58:32;5.90;99.90
64951;DHT22;51482;47.014;7.652;2023-04-03T04:01:03;6.10;99.90
64951;DHT22;51482;47.014;7.652;2023-04-03T04:03:28;6.10;99.90
64951;DHT22;51482;47.014;7.652;2023-04-03T04:05:54;6.20;99.90
64951;DHT22;51482;47.014;7.652;2023-04-03T04:08:20;5.90;99.90
64951;DHT22;51482;47.014;7.652;2023-04-03T04:10:45;6.00;99.90
64951;DHT22;51482;47.014;7.652;2023-04-03T04:13:11;6.40;99.90
64951;DHT22;51482;47.014;7.652;2023-04-03T04:15:36;6.60;99.90
64951;DHT22;51482;47.014;7.652;2023-04-03T04:18:02;6.30;99.90
64951;DHT22;51482;47.014;7.652;2023-04-03T04:20:28;6.00;99.90
64951;DHT22;51482;47.014;7.652;2023-04-03T04:22:54;5.50;99.90
64951;DHT22;51482;47.014;7.652;2023-04-03T04:25:19;5.80;99.90
64951;DHT22;51482;47.014;7.652;2023-04-03T04:27:45;6.10;99.90
64951;DHT22;51482;47.014;7.652;2023-04-03T04:30:11;6.70;99.90
64951;DHT22;51482;47.014;7.652;2023-04-03T04:32:37;6.00;99.90
64951;DHT22;51482;47.014;7.652;2023-04-03T04:35:03;5.70;99.90
64951;DHT22;51482;47.014;7.652;2023-04-03T04:37:29;6.20;99.90
64951;DHT22;51482;47.014;7.652;2023-04-03T04:39:55;6.40;99.90
64951;DHT22;51482;47.014;7.652;2023-04-03T04:42:21;6.00;99.90
64951;DHT22;51482;47.014;7.652;2023-04-03T04:44:46;6.50;99.90
64951;DHT22;51482;47.014;7.652;2023-04-03T04:47:12;5.50;99.90
64951;DHT22;51482;47.014;7.652;2023-04-03T04:49:37;5.40;99.90
64951;DHT22;51482;47.014;7.652;2023-04-03T04:52:03;5.50;99.90
64951;DHT22;51482;47.014;7.652;2023-04-03T04:54:28;5.80;99.90
64951;DHT22;51482;47.014;7.652;2023-04-03T04:56:54;5.50;99.90
64951;DHT22;51482;47.014;7.652;2023-04-03T04:59:19;5.90;99.90
64951;DHT22;51482;47.014;7.652;2023-04-03T05:01:45;6.00;99.90
64951;DHT22;51482;47.014;7.652;2023-04-03T05:04:11;6.20;99.90
64951;DHT22;51482;47.014;7.652;2023-04-03T05:06:38;6.10;99.90
64951;DHT22;51482;47.014;7.652;2023-04-03T05:09:03;5.30;99.90
64951;DHT22;51482;47.014;7.652;2023-04-03T05:11:29;5.80;99.90
64951;DHT22;51482;47.014;7.652;2023-04-03T05:13:55;5.80;99.90
64951;DHT22;51482;47.014;7.652;2023-04-03T05:16:20;5.40;99.90
64951;DHT22;51482;47.014;7.652;2023-04-03T05:18:46;5.60;99.90
64951;DHT22;51482;47.014;7.652;2023-04-03T05:21:11;6.10;99.90
64951;DHT22;51482;47.014;7.652;2023-04-03T05:23:37;5.10;99.90
64951;DHT22;51482;47.014;7.652;2023-04-03T05:26:03;5.90;99.90
64951;DHT22;51482;47.014;7.652;2023-04-03T05:28:28;5.50;99.90
64951;DHT22;51482;47.014;7.652;2023-04-03T05:30:56;5.30;99.90
64951;DHT22;51482;47.014;7.652;2023-04-03T05:33:22;5.90;99.90
64951;DHT22;51482;47.014;7.652;2023-04-03T05:35:48;5.50;99.90
64951;DHT22;51482;47.014;7.652;2023-04-03T05:38:14;5.90;99.90
64951;DHT22;51482;47.014;7.652;2023-04-03T05:40:40;5.70;99.90
64951;DHT22;51482;47.014;7.652;2023-04-03T05:43:05;5.20;99.90
64951;DHT22;51482;47.014;7.652;2023-04-03T05:45:31;5.80;99.90
64951;DHT22;51482;47.014;7.652;2023-04-03T05:47:56;5.90;99.90
64951;DHT22;51482;47.014;7.652;2023-04-03T05:50:22;5.40;99.90
64951;DHT22;51482;47.014;7.652;2023-04-03T05:52:49;5.20;99.90
64951;DHT22;51482;47.014;7.652;2023-04-03T05:55:16;5.70;99.90
64951;DHT22;51482;47.014;7.652;2023-04-03T05:57:42;5.20;99.90
64951;DHT22;51482;47.014;7.652;2023-04-03T06:00:10;5.60;99.90
64951;DHT22;51482;47.014;7.652;2023-04-03T06:02:37;5.20;99.90
64951;DHT22;51482;47.014;7.652;2023-04-03T06:05:03;5.80;99.90
64951;DHT22;51482;47.014;7.652;2023-04-03T06:07:29;5.00;99.90
64951;DHT22;51482;47.014;7.652;2023-04-03T06:09:56;5.20;99.90
64951;DHT22;51482;47.014;7.652;2023-04-03T06:12:22;5.20;99.90
64951;DHT22;51482;47.014;7.652;2023-04-03T06:14:48;5.60;99.90
64951;DHT22;51482;47.014;7.652;2023-04-03T06:17:15;5.10;99.90
64951;DHT22;51482;47.014;7.652;2023-04-03T06:19:41;5.10;99.90
64951;DHT22;51482;47.014;7.652;2023-04-03T06:22:07;5.10;99.90
64951;DHT22;51482;47.014;7.652;2023-04-03T06:24:32;4.80;99.90
64951;DHT22;51482;47.014;7.652;2023-04-03T06:26:58;5.10;99.90
64951;DHT22;51482;47.014;7.652;2023-04-03T06:29:24;5.70;99.90
64951;DHT22;51482;47.014;7.652;2023-04-03T06:31:51;5.70;99.90
64951;DHT22;51482;47.014;7.652;2023-04-03T06:34:17;5.50;99.90
64951;DHT22;51482;47.014;7.652;2023-04-03T06:36:44;5.40;99.90
64951;DHT22;51482;47.014;7.652;2023-04-03T06:39:16;4.80;99.90
64951;DHT22;51482;47.014;7.652;2023-04-03T06:41:42;5.20;99.90
64951;DHT22;51482;47.014;7.652;2023-04-03T06:44:08;5.60;99.90
64951;DHT22;51482;47.014;7.652;2023-04-03T06:46:37;4.90;99.90
64951;DHT22;51482;47.014;7.652;2023-04-03T06:49:03;4.90;99.90
64951;DHT22;51482;47.014;7.652;2023-04-03T06:51:29;5.40;99.90
64951;DHT22;51482;47.014;7.652;2023-04-03T06:53:57;5.00;99.90
64951;DHT22;51482;47.014;7.652;2023-04-03T06:56:23;4.30;99.90
64951;DHT22;51482;47.014;7.652;2023-04-03T06:58:50;5.20;99.90
64951;DHT22;51482;47.014;7.652;2023-04-03T07:01:17;4.90;99.90
64951;DHT22;51482;47.014;7.652;2023-04-03T07:03:45;4.80;99.90
64951;DHT22;51482;47.014;7.652;2023-04-03T07:06:12;4.90;99.90
64951;DHT22;51482;47.014;7.652;2023-04-03T07:08:39;4.80;99.90
64951;DHT22;51482;47.014;7.652;2023-04-03T07:11:05;5.00;99.90
64951;DHT22;51482;47.014;7.652;2023-04-03T07:13:32;5.00;99.90
64951;DHT22;51482;47.014;7.652;2023-04-03T07:15:58;5.50;99.90
64951;DHT22;51482;47.014;7.652;2023-04-03T07:18:24;5.00;99.90
64951;DHT22;51482;47.014;7.652;2023-04-03T07:20:50;4.70;99.90
64951;DHT22;51482;47.014;7.652;2023-04-03T07:23:16;5.10;99.90
64951;DHT22;51482;47.014;7.652;2023-04-03T07:25:46;5.50;99.90
64951;DHT22;51482;47.014;7.652;2023-04-03T07:28:12;4.90;99.90
64951;DHT22;51482;47.014;7.652;2023-04-03T07:30:45;5.50;99.90
64951;DHT22;51482;47.014;7.652;2023-04-03T07:33:12;5.40;99.90
64951;DHT22;51482;47.014;7.652;2023-04-03T07:35:38;5.30;99.90
64951;DHT22;51482;47.014;7.652;2023-04-03T07:38:04;5.40;99.90
64951;DHT22;51482;47.014;7.652;2023-04-03T07:40:31;5.40;99.90
64951;DHT22;51482;47.014;7.652;2023-04-03T07:42:56;5.30;99.90
64951;DHT22;51482;47.014;7.652;2023-04-03T07:45:22;5.30;99.90
64951;DHT22;51482;47.014;7.652;2023-04-03T07:47:48;5.30;99.90
64951;DHT22;51482;47.014;7.652;2023-04-03T07:50:14;5.50;99.90
64951;DHT22;51482;47.014;7.652;2023-04-03T07:52:40;4.90;99.90
64951;DHT22;51482;47.014;7.652;2023-04-03T07:55:06;5.50;99.90
64951;DHT22;51482;47.014;7.652;2023-04-03T07:57:32;5.20;99.90
64951;DHT22;51482;47.014;7.652;2023-04-03T07:59:57;3.90;99.90
64951;DHT22;51482;47.014;7.652;2023-04-03T08:02:23;4.90;99.90
64951;DHT22;51482;47.014;7.652;2023-04-03T08:04:48;5.80;99.90
64951;DHT22;51482;47.014;7.652;2023-04-03T08:07:14;5.80;99.90
64951;DHT22;51482;47.014;7.652;2023-04-03T08:09:40;5.90;99.90
64951;DHT22;51482;47.014;7.652;2023-04-03T08:12:06;5.90;99.90
64951;DHT22;51482;47.014;7.652;2023-04-03T08:14:32;5.50;99.90
64951;DHT22;51482;47.014;7.652;2023-04-03T08:17:00;5.90;99.90
64951;DHT22;51482;47.014;7.652;2023-04-03T08:19:26;5.90;99.90
64951;DHT22;51482;47.014;7.652;2023-04-03T08:21:52;5.40;99.90
64951;DHT22;51482;47.014;7.652;2023-04-03T08:24:18;5.50;99.90
64951;DHT22;51482;47.014;7.652;2023-04-03T08:26:43;5.60;99.90
64951;DHT22;51482;47.014;7.652;2023-04-03T08:29:09;5.40;99.90
64951;DHT22;51482;47.014;7.652;2023-04-03T08:31:35;6.00;99.90
64951;DHT22;51482;47.014;7.652;2023-04-03T08:34:00;5.90;99.90
64951;DHT22;51482;47.014;7.652;2023-04-03T08:36:28;6.10;99.90
64951;DHT22;51482;47.014;7.652;2023-04-03T08:38:54;6.10;99.90
64951;DHT22;51482;47.014;7.652;2023-04-03T08:41:40;6.10;99.90
64951;DHT22;51482;47.014;7.652;2023-04-03T08:49:32;6.30;99.90
64951;DHT22;51482;47.014;7.652;2023-04-03T08:51:59;6.60;99.90
64951;DHT22;51482;47.014;7.652;2023-04-03T08:54:56;6.60;99.90
64951;DHT22;51482;47.014;7.652;2023-04-03T08:58:01;6.40;99.90
64951;DHT22;51482;47.014;7.652;2023-04-03T09:00:30;5.80;99.90
64951;DHT22;51482;47.014;7.652;2023-04-03T09:02:58;5.30;99.90
64951;DHT22;51482;47.014;7.652;2023-04-03T09:05:35;6.40;99.90
64951;DHT22;51482;47.014;7.652;2023-04-03T09:08:21;5.90;99.90
64951;DHT22;51482;47.014;7.652;2023-04-03T09:10:50;6.00;99.90
64951;DHT22;51482;47.014;7.652;2023-04-03T09:13:21;6.20;99.90
64951;DHT22;51482;47.014;7.652;2023-04-03T09:15:48;5.60;99.90
64951;DHT22;51482;47.014;7.652;2023-04-03T09:18:21;6.20;99.90
64951;DHT22;51482;47.014;7.652;2023-04-03T09:23:33;7.10;99.90
64951;DHT22;51482;47.014;7.652;2023-04-03T09:26:06;6.80;99.90
64951;DHT22;51482;47.014;7.652;2023-04-03T09:28:38;6.60;99.90
64951;DHT22;51482;47.014;7.652;2023-04-03T09:31:37;7.10;99.90
64951;DHT22;51482;47.014;7.652;2023-04-03T09:34:10;7.10;99.90
64951;DHT22;51482;47.014;7.652;2023-04-03T09:36:46;7.00;99.90
64951;DHT22;51482;47.014;7.652;2023-04-03T09:39:16;8.40;99.90
64951;DHT22;51482;47.014;7.652;2023-04-03T09:41:58;9.10;99.90
64951;DHT22;51482;47.014;7.652;2023-04-03T09:44:38;9.40;99.90
64951;DHT22;51482;47.014;7.652;2023-04-03T09:47:30;8.80;99.90
64951;DHT22;51482;47.014;7.652;2023-04-03T09:50:18;8.60;99.90
64951;DHT22;51482;47.014;7.652;2023-04-03T09:52:47;8.80;99.90
64951;DHT22;51482;47.014;7.652;2023-04-03T09:57:48;7.90;99.90
64951;DHT22;51482;47.014;7.652;2023-04-03T10:00:24;8.00;99.90
64951;DHT22;51482;47.014;7.652;2023-04-03T10:02:54;7.50;99.90
64951;DHT22;51482;47.014;7.652;2023-04-03T10:05:36;8.00;99.90
64951;DHT22;51482;47.014;7.652;2023-04-03T10:10:33;7.40;99.90
64951;DHT22;51482;47.014;7.652;2023-04-03T10:13:28;8.00;99.90
64951;DHT22;51482;47.014;7.652;2023-04-03T10:15:59;8.20;99.90
64951;DHT22;51482;47.014;7.652;2023-04-03T10:20:54;7.60;99.90
64951;DHT22;51482;47.014;7.652;2023-04-03T10:23:26;8.00;99.90
64951;DHT22;51482;47.014;7.652;2023-04-03T10:26:16;8.30;99.90
64951;DHT22;51482;47.014;7.652;2023-04-03T10:28:57;8.30;99.90
64951;DHT22;51482;47.014;7.652;2023-04-03T10:31:25;9.10;99.90
64951;DHT22;51482;47.014;7.652;2023-04-03T10:37:06;8.60;99.90
64951;DHT22;51482;47.014;7.652;2023-04-03T10:40:04;8.40;99.90
64951;DHT22;51482;47.014;7.652;2023-04-03T10:42:35;8.60;99.90
64951;DHT22;51482;47.014;7.652;2023-04-03T10:45:34;8.90;99.90
64951;DHT22;51482;47.014;7.652;2023-04-03T10:48:14;8.40;99.90
64951;DHT22;51482;47.014;7.652;2023-04-03T10:56:35;8.20;99.90
64951;DHT22;51482;47.014;7.652;2023-04-03T10:59:15;7.30;99.90
64951;DHT22;51482;47.014;7.652;2023-04-03T11:01:46;7.40;99.90
64951;DHT22;51482;47.014;7.652;2023-04-03T11:04:15;7.60;99.90
64951;DHT22;51482;47.014;7.652;2023-04-03T11:06:47;8.10;99.90
64951;DHT22;51482;47.014;7.652;2023-04-03T11:09:21;8.20;99.90
64951;DHT22;51482;47.014;7.652;2023-04-03T11:11:48;7.30;99.90
64951;DHT22;51482;47.014;7.652;2023-04-03T11:14:32;7.40;99.90
64951;DHT22;51482;47.014;7.652;2023-04-03T11:17:10;7.40;99.90
64951;DHT22;51482;47.014;7.652;2023-04-03T11:19:41;7.60;99.90
64951;DHT22;51482;47.014;7.652;2023-04-03T11:22:25;7.30;99.90
64951;DHT22;51482;47.014;7.652;2023-04-03T11:27:47;7.60;99.90
64951;DHT22;51482;47.014;7.652;2023-04-03T11:32:54;7.90;99.90
64951;DHT22;51482;47.014;7.652;2023-04-03T11:35:24;7.40;99.90
64951;DHT22;51482;47.014;7.652;2023-04-03T11:37:52;7.70;99.90
64951;DHT22;51482;47.014;7.652;2023-04-03T11:40:32;8.00;99.90
64951;DHT22;51482;47.014;7.652;2023-04-03T11:46:09;7.40;99.90
64951;DHT22;51482;47.014;7.652;2023-04-03T11:50:48;8.30;99.90
64951;DHT22;51482;47.014;7.652;2023-04-03T12:00:47;7.20;99.90
64951;DHT22;51482;47.014;7.652;2023-04-03T12:16:28;7.70;99.90
64951;DHT22;51482;47.014;7.652;2023-04-03T12:27:01;7.40;99.90
64951;DHT22;51482;47.014;7.652;2023-04-03T12:29:38;7.60;99.90
64951;DHT22;51482;47.014;7.652;2023-04-03T12:37:46;7.70;99.90
64951;DHT22;51482;47.014;7.652;2023-04-03T12:40:55;7.00;99.90
64951;DHT22;51482;47.014;7.652;2023-04-03T12:48:30;7.20;99.90
64951;DHT22;51482;47.014;7.652;2023-04-03T12:50:58;7.40;99.90
64951;DHT22;51482;47.014;7.652;2023-04-03T12:53:35;8.10;99.90
64951;DHT22;51482;47.014;7.652;2023-04-03T12:56:28;7.60;99.90
64951;DHT22;51482;47.014;7.652;2023-04-03T12:59:18;7.90;99.90
64951;DHT22;51482;47.014;7.652;2023-04-03T13:01:42;8.40;99.90
64951;DHT22;51482;47.014;7.652;2023-04-03T13:04:10;8.00;99.90
64951;DHT22;51482;47.014;7.652;2023-04-03T13:06:42;7.90;99.90
64951;DHT22;51482;47.014;7.652;2023-04-03T13:09:23;8.30;99.90
64951;DHT22;51482;47.014;7.652;2023-04-03T13:11:51;8.20;99.90
64951;DHT22;51482;47.014;7.652;2023-04-03T13:14:23;7.70;99.90
64951;DHT22;51482;47.014;7.652;2023-04-03T13:17:05;8.30;99.90
64951;DHT22;51482;47.014;7.652;2023-04-03T13:19:31;7.90;99.90
64951;DHT22;51482;47.014;7.652;2023-04-03T13:22:33;8.50;99.90
64951;DHT22;51482;47.014;7.652;2023-04-03T13:24:59;8.60;99.90
64951;DHT22;51482;47.014;7.652;2023-04-03T13:27:29;8.60;99.90
64951;DHT22;51482;47.014;7.652;2023-04-03T13:29:57;8.70;99.90
64951;DHT22;51482;47.014;7.652;2023-04-03T13:32:26;8.40;99.90
64951;DHT22;51482;47.014;7.652;2023-04-03T13:34:52;8.50;99.90
64951;DHT22;51482;47.014;7.652;2023-04-03T13:40:03;8.50;99.90
64951;DHT22;51482;47.014;7.652;2023-04-03T13:42:31;9.20;99.90
64951;DHT22;51482;47.014;7.652;2023-04-03T13:47:40;9.50;99.90
64951;DHT22;51482;47.014;7.652;2023-04-03T13:52:43;9.10;99.90
64951;DHT22;51482;47.014;7.652;2023-04-03T13:55:27;9.00;99.90
64951;DHT22;51482;47.014;7.652;2023-04-03T13:57:57;9.00;99.90
64951;DHT22;51482;47.014;7.652;2023-04-03T14:00:39;9.10;99.90
64951;DHT22;51482;47.014;7.652;2023-04-03T14:03:40;8.60;99.90
64951;DHT22;51482;47.014;7.652;2023-04-03T14:06:08;8.60;99.90
64951;DHT22;51482;47.014;7.652;2023-04-03T14:08:35;8.40;99.90
64951;DHT22;51482;47.014;7.652;2023-04-03T14:11:00;8.10;99.90
64951;DHT22;51482;47.014;7.652;2023-04-03T14:13:26;7.90;99.90
64951;DHT22;51482;47.014;7.652;2023-04-03T14:15:51;8.10;99.90
64951;DHT22;51482;47.014;7.652;2023-04-03T14:18:19;8.60;99.90
64951;DHT22;51482;47.014;7.652;2023-04-03T14:20:46;8.50;99.90
64951;DHT22;51482;47.014;7.652;2023-04-03T14:23:12;8.00;99.90
64951;DHT22;51482;47.014;7.652;2023-04-03T14:25:38;8.40;99.90
64951;DHT22;51482;47.014;7.652;2023-04-03T14:28:15;8.40;99.90
64951;DHT22;51482;47.014;7.652;2023-04-03T14:30:42;8.30;99.90
64951;DHT22;51482;47.014;7.652;2023-04-03T14:33:13;8.20;99.90
64951;DHT22;51482;47.014;7.652;2023-04-03T14:35:38;7.60;99.90
64951;DHT22;51482;47.014;7.652;2023-04-03T14:38:12;7.70;99.90
64951;DHT22;51482;47.014;7.652;2023-04-03T14:40:42;7.60;99.90
64951;DHT22;51482;47.014;7.652;2023-04-03T14:43:09;8.20;99.90
64951;DHT22;51482;47.014;7.652;2023-04-03T14:45:35;8.30;99.90
64951;DHT22;51482;47.014;7.652;2023-04-03T14:48:00;8.10;99.90
64951;DHT22;51482;47.014;7.652;2023-04-03T14:50:28;8.20;99.90
64951;DHT22;51482;47.014;7.652;2023-04-03T14:52:56;7.70;99.90
64951;DHT22;51482;47.014;7.652;2023-04-03T14:55:25;7.60;99.90
64951;DHT22;51482;47.014;7.652;2023-04-03T14:57:51;8.20;99.90
64951;DHT22;51482;47.014;7.652;2023-04-03T15:00:20;7.90;99.90
64951;DHT22;51482;47.014;7.652;2023-04-03T15:02:46;7.40;99.90
64951;DHT22;51482;47.014;7.652;2023-04-03T15:05:13;7.90;99.90
64951;DHT22;51482;47.014;7.652;2023-04-03T15:07:46;7.50;99.90
64951;DHT22;51482;47.014;7.652;2023-04-03T15:10:18;7.20;99.90
64951;DHT22;51482;47.014;7.652;2023-04-03T15:12:44;7.50;99.90
64951;DHT22;51482;47.014;7.652;2023-04-03T15:15:10;7.90;99.90
64951;DHT22;51482;47.014;7.652;2023-04-03T15:17:36;8.00;99.90
64951;DHT22;51482;47.014;7.652;2023-04-03T15:20:05;7.40;99.90
64951;DHT22;51482;47.014;7.652;2023-04-03T15:22:36;7.70;99.90
64951;DHT22;51482;47.014;7.652;2023-04-03T15:25:01;7.80;99.90
64951;DHT22;51482;47.014;7.652;2023-04-03T15:27:28;7.30;99.90
64951;DHT22;51482;47.014;7.652;2023-04-03T15:29:54;7.60;99.90
64951;DHT22;51482;47.014;7.652;2023-04-03T15:32:19;6.60;99.90
64951;DHT22;51482;47.014;7.652;2023-04-03T15:34:45;7.60;99.90
64951;DHT22;51482;47.014;7.652;2023-04-03T15:37:10;7.60;99.90
64951;DHT22;51482;47.014;7.652;2023-04-03T15:39:36;7.20;99.90
64951;DHT22;51482;47.014;7.652;2023-04-03T15:42:01;7.60;99.90
64951;DHT22;51482;47.014;7.652;2023-04-03T15:44:34;6.80;99.90
64951;DHT22;51482;47.014;7.652;2023-04-03T15:47:00;6.70;99.90
64951;DHT22;51482;47.014;7.652;2023-04-03T15:49:27;7.60;99.90
64951;DHT22;51482;47.014;7.652;2023-04-03T15:51:52;7.50;99.90
64951;DHT22;51482;47.014;7.652;2023-04-03T15:54:18;6.70;99.90
64951;DHT22;51482;47.014;7.652;2023-04-03T15:56:44;6.40;99.90
64951;DHT22;51482;47.014;7.652;2023-04-03T15:59:09;7.30;99.90
64951;DHT22;51482;47.014;7.652;2023-04-03T16:01:37;7.50;99.90
64951;DHT22;51482;47.014;7.652;2023-04-03T16:04:04;7.40;99.90
64951;DHT22;51482;47.014;7.652;2023-04-03T16:06:29;6.90;99.90
64951;DHT22;51482;47.014;7.652;2023-04-03T16:08:56;6.90;99.90
64951;DHT22;51482;47.014;7.652;2023-04-03T16:11:26;7.50;99.90
64951;DHT22;51482;47.014;7.652;2023-04-03T16:13:53;6.90;99.90
64951;DHT22;51482;47.014;7.652;2023-04-03T16:16:18;6.90;99.90
64951;DHT22;51482;47.014;7.652;2023-04-03T16:18:44;6.50;99.90
64951;DHT22;51482;47.014;7.652;2023-04-03T16:21:13;7.50;99.90
64951;DHT22;51482;47.014;7.652;2023-04-03T16:23:39;7.10;99.90
64951;DHT22;51482;47.014;7.652;2023-04-03T16:26:05;6.30;99.90
64951;DHT22;51482;47.014;7.652;2023-04-03T16:28:31;6.40;99.90
64951;DHT22;51482;47.014;7.652;2023-04-03T16:30:57;6.90;99.90
64951;DHT22;51482;47.014;7.652;2023-04-03T16:33:22;6.50;99.90
64951;DHT22;51482;47.014;7.652;2023-04-03T16:35:50;6.60;99.90
64951;DHT22;51482;47.014;7.652;2023-04-03T16:38:16;6.80;99.90
64951;DHT22;51482;47.014;7.652;2023-04-03T16:40:41;6.40;99.90
64951;DHT22;51482;47.014;7.652;2023-04-03T16:43:07;6.90;99.90
64951;DHT22;51482;47.014;7.652;2023-04-03T16:45:32;6.30;99.90
64951;DHT22;51482;47.014;7.652;2023-04-03T16:47:58;6.00;99.90
64951;DHT22;51482;47.014;7.652;2023-04-03T16:50:24;6.10;99.90
64951;DHT22;51482;47.014;7.652;2023-04-03T16:52:49;6.70;99.90
64951;DHT22;51482;47.014;7.652;2023-04-03T16:55:15;6.00;99.90
64951;DHT22;51482;47.014;7.652;2023-04-03T16:57:41;6.80;99.90
64951;DHT22;51482;47.014;7.652;2023-04-03T17:00:07;6.50;99.90
64951;DHT22;51482;47.014;7.652;2023-04-03T17:02:32;6.10;99.90
64951;DHT22;51482;47.014;7.652;2023-04-03T17:04:58;6.10;99.90
64951;DHT22;51482;47.014;7.652;2023-04-03T17:07:25;6.70;99.90
64951;DHT22;51482;47.014;7.652;2023-04-03T17:09:51;6.40;99.90
64951;DHT22;51482;47.014;7.652;2023-04-03T17:12:21;7.20;99.90
64951;DHT22;51482;47.014;7.652;2023-04-03T17:14:47;6.60;99.90
64951;DHT22;51482;47.014;7.652;2023-04-03T17:17:14;6.00;99.90
64951;DHT22;51482;47.014;7.652;2023-04-03T17:19:41;6.30;99.90
64951;DHT22;51482;47.014;7.652;2023-04-03T17:22:08;6.10;99.90